Time;durP1;ratioP1;P1;durP2;ratioP2;P2;SDS_P1;SDS_P2;PMS_P1;PMS_P2;Temp;Humidity;BMP_temperature;BMP_pressure;BME280_temperature;BME280_humidity;BME280_pressure;Samples;Min_cycle;Max_cycle;Signal;HPM_P1;HPM_P2
2022/09/09 00:02:19;;;;;;;1.08;0.40;;;22.60;50.90;;;;;;2580154;53;20940;-74
2022/09/09 00:05:04;;;;;;;1.25;0.45;;;22.60;51.10;;;;;;2337116;53;20976;-72
2022/09/09 00:07:55;;;;;;;4.55;0.50;;;22.50;51.30;;;;;;2341153;53;21000;-72
2022/09/09 00:10:40;;;;;;;1.77;0.50;;;22.50;51.30;;;;;;2460550;53;21825;-74
2022/09/09 00:13:52;;;;;;;2.60;0.40;;;22.50;51.50;;;;;;2340030;54;20934;-72
2022/09/09 00:16:24;;;;;;;2.40;0.55;;;22.50;51.60;;;;;;2536664;53;20962;-71
2022/09/09 00:22:07;;;;;;;1.45;0.40;;;22.50;51.50;;;;;;2344613;53;21036;-72
2022/09/09 00:29:44;;;;;;;0.95;0.35;;;22.50;51.40;;;;;;2343946;54;20904;-72
2022/09/09 00:32:16;;;;;;;1.25;0.40;;;22.40;51.10;;;;;;2344187;54;20963;-72
2022/09/09 00:34:54;;;;;;;0.83;0.50;;;22.40;50.90;;;;;;2515050;52;20916;-71
2022/09/09 00:37:21;;;;;;;1.65;0.40;;;22.40;50.90;;;;;;2586540;52;21537;-72
2022/09/09 00:39:51;;;;;;;1.10;0.30;;;22.30;51.00;;;;;;2586471;52;20967;-70
2022/09/09 00:42:30;;;;;;;1.00;0.30;;;22.30;51.10;;;;;;2368130;52;20995;-72
2022/09/09 00:46:32;;;;;;;1.70;0.40;;;22.20;51.20;;;;;;2341241;53;20968;-73
2022/09/09 00:49:46;;;;;;;1.60;0.45;;;22.20;51.20;;;;;;2343662;54;20907;-72
2022/09/09 00:56:44;;;;;;;1.67;0.50;;;22.20;51.20;;;;;;2344271;54;21423;-73
2022/09/09 01:02:31;;;;;;;1.60;0.30;;;22.20;51.30;;;;;;2344112;53;20898;-72
2022/09/09 01:05:04;;;;;;;2.17;0.50;;;22.20;51.30;;;;;;2343198;53;20912;-72
2022/09/09 01:07:32;;;;;;;1.58;0.47;;;22.20;51.30;;;;;;2590400;52;20928;-71
2022/09/09 01:09:59;;;;;;;1.55;0.47;;;22.10;51.30;;;;;;2345429;53;20936;-71
2022/09/09 01:12:41;;;;;;;1.30;0.30;;;22.10;51.50;;;;;;2342579;53;21854;-74
2022/09/09 01:15:24;;;;;;;1.52;0.30;;;22.10;51.60;;;;;;2343342;53;21416;-71
2022/09/09 01:18:01;;;;;;;0.68;0.25;;;22.10;51.70;;;;;;2415867;52;21012;-72
2022/09/09 01:21:37;;;;;;;0.45;0.15;;;22.10;51.70;;;;;;2347768;53;20957;-73
2022/09/09 01:25:51;;;;;;;1.23;0.30;;;22.10;51.80;;;;;;2342863;53;20931;-71
2022/09/09 01:28:24;;;;;;;1.02;0.17;;;22.10;52.00;;;;;;2510935;52;20904;-70
2022/09/09 01:30:51;;;;;;;0.35;0.17;;;22.10;51.60;;;;;;2343570;53;20943;-72
2022/09/09 01:33:17;;;;;;;1.55;0.50;;;22.10;51.60;;;;;;2344235;54;21634;-71
2022/09/09 01:39:25;;;;;;;1.08;0.20;;;22.10;51.60;;;;;;2417906;52;20946;-73
2022/09/09 01:41:52;;;;;;;0.60;0.28;;;22.10;51.80;;;;;;2584743;52;21080;-72
2022/09/09 01:44:19;;;;;;;1.45;0.50;;;22.10;51.60;;;;;;2344602;53;21079;-72
2022/09/09 01:46:45;;;;;;;1.60;0.30;;;22.10;51.60;;;;;;2387984;53;21824;-73
2022/09/09 01:49:12;;;;;;;0.82;0.30;;;22.00;51.60;;;;;;2344764;54;21028;-71
2022/09/09 01:51:39;;;;;;;0.52;0.30;;;22.00;51.70;;;;;;2346489;54;20911;-71
2022/09/09 01:54:05;;;;;;;0.80;0.20;;;22.00;51.70;;;;;;2338859;53;21023;-71
2022/09/09 02:04:35;;;;;;;1.55;0.52;;;22.00;51.60;;;;;;2344349;54;20987;-72
2022/09/09 02:07:01;;;;;;;0.40;0.17;;;22.00;51.50;;;;;;2328743;54;21828;-72
2022/09/09 02:09:29;;;;;;;0.28;0.20;;;22.00;51.30;;;;;;2520553;53;1245662;-72
2022/09/09 02:12:02;;;;;;;0.57;0.15;;;22.00;51.40;;;;;;2338999;53;20938;-71
2022/09/09 02:14:31;;;;;;;1.45;0.20;;;21.90;51.40;;;;;;2341970;53;21039;-71
2022/09/09 02:17:03;;;;;;;1.10;0.22;;;21.90;51.50;;;;;;2453482;53;20946;-71
2022/09/09 02:19:34;;;;;;;1.77;0.40;;;21.90;51.50;;;;;;2507005;53;21056;-71
2022/09/09 02:22:00;;;;;;;0.75;0.20;;;21.90;51.60;;;;;;2351021;53;21315;-71
2022/09/09 02:24:28;;;;;;;1.10;0.20;;;21.90;51.70;;;;;;2342974;53;21596;-71
2022/09/09 02:26:55;;;;;;;1.42;0.30;;;21.90;51.70;;;;;;2344175;53;21003;-72
2022/09/09 02:29:24;;;;;;;0.47;0.17;;;21.80;51.60;;;;;;2347008;54;21389;-74
2022/09/09 02:31:50;;;;;;;0.55;0.20;;;21.80;51.70;;;;;;2349094;53;20900;-74
2022/09/09 02:34:18;;;;;;;0.40;0.17;;;21.80;51.70;;;;;;2340660;53;20919;-74
2022/09/09 02:36:45;;;;;;;5.20;0.30;;;21.80;51.60;;;;;;2586959;52;20971;-71
2022/09/09 02:39:11;;;;;;;1.25;0.37;;;21.80;51.60;;;;;;2343312;54;20895;-71
2022/09/09 02:41:39;;;;;;;1.05;0.37;;;21.80;51.70;;;;;;2344378;54;20956;-71
2022/09/09 02:44:16;;;;;;;0.90;0.20;;;21.80;51.70;;;;;;2344105;54;20994;-73
2022/09/09 02:46:55;;;;;;;2.30;0.37;;;21.70;51.60;;;;;;2575397;53;21472;-72
2022/09/09 02:49:51;;;;;;;1.17;0.30;;;21.70;51.70;;;;;;2338413;54;21015;-71
2022/09/09 02:52:22;;;;;;;1.00;0.30;;;21.70;51.70;;;;;;2358457;53;20937;-73
2022/09/09 02:54:48;;;;;;;0.82;0.20;;;21.70;51.70;;;;;;2338575;53;20912;-72
2022/09/09 02:57:21;;;;;;;1.12;0.22;;;21.70;51.70;;;;;;2579162;53;21033;-70
2022/09/09 02:59:47;;;;;;;0.80;0.25;;;21.60;52.40;;;;;;2563506;53;20931;-71
2022/09/09 03:02:13;;;;;;;0.75;0.15;;;21.60;51.90;;;;;;2339443;54;21834;-72
2022/09/09 03:04:40;;;;;;;1.60;0.30;;;21.60;51.90;;;;;;2319667;54;21502;-71
2022/09/09 03:07:06;;;;;;;0.90;0.20;;;21.60;52.00;;;;;;2339177;54;20942;-71
2022/09/09 03:09:32;;;;;;;1.48;0.30;;;21.60;52.00;;;;;;2339280;54;21498;-71
2022/09/09 03:12:00;;;;;;;0.68;0.20;;;21.60;52.00;;;;;;2338583;54;20930;-71
2022/09/09 03:14:26;;;;;;;0.55;0.10;;;21.60;52.10;;;;;;2338522;54;20998;-72
2022/09/09 03:16:56;;;;;;;1.08;0.30;;;21.60;52.10;;;;;;2338787;54;20983;-71
2022/09/09 03:19:22;;;;;;;0.80;0.30;;;21.60;52.10;;;;;;2342631;54;21412;-71
2022/09/09 03:21:49;;;;;;;0.57;0.20;;;21.60;52.20;;;;;;2339131;54;21432;-71
2022/09/09 03:24:15;;;;;;;1.05;0.20;;;21.60;52.10;;;;;;2319212;54;20910;-71
2022/09/09 03:26:44;;;;;;;1.12;0.37;;;21.60;52.10;;;;;;2338412;54;21010;-71
2022/09/09 03:29:12;;;;;;;1.23;0.22;;;21.60;52.00;;;;;;2338686;54;21006;-71
2022/09/09 03:31:39;;;;;;;0.93;0.22;;;21.50;51.90;;;;;;2574347;53;20994;-71
2022/09/09 03:34:05;;;;;;;0.88;0.20;;;21.50;51.90;;;;;;2480651;53;21010;-71
2022/09/09 03:36:32;;;;;;;3.03;1.17;;;21.50;51.90;;;;;;2327194;53;21010;-71
2022/09/09 03:38:58;;;;;;;1.33;0.45;;;21.50;51.90;;;;;;2590734;52;20928;-71
2022/09/09 03:41:26;;;;;;;2.00;0.40;;;21.50;52.00;;;;;;2347962;54;20908;-72
2022/09/09 03:43:55;;;;;;;1.70;0.40;;;21.50;52.00;;;;;;2346499;53;20960;-70
2022/09/09 03:46:23;;;;;;;3.15;0.80;;;21.40;51.90;;;;;;2340152;53;21076;-72
2022/09/09 03:48:51;;;;;;;1.80;0.32;;;21.40;52.00;;;;;;2341950;53;21048;-75
2022/09/09 03:51:18;;;;;;;0.62;0.22;;;21.40;52.00;;;;;;2341425;54;20948;-72
2022/09/09 03:53:44;;;;;;;3.60;1.45;;;21.40;52.10;;;;;;2348493;54;20949;-71
2022/09/09 03:56:14;;;;;;;0.50;0.17;;;21.40;52.40;;;;;;2346833;53;21278;-74
2022/09/09 03:58:41;;;;;;;0.37;0.20;;;21.40;52.20;;;;;;2351444;53;20940;-71
2022/09/09 04:01:14;;;;;;;1.65;0.40;;;21.40;52.20;;;;;;2338064;53;21007;-71
2022/09/09 04:03:40;;;;;;;1.55;0.40;;;21.30;52.20;;;;;;2353000;53;21005;-71
2022/09/09 04:06:09;;;;;;;1.95;0.47;;;21.30;52.20;;;;;;2341025;53;21072;-72
2022/09/09 04:08:38;;;;;;;1.75;0.40;;;21.30;52.20;;;;;;2346272;53;21036;-71
2022/09/09 04:11:06;;;;;;;1.37;0.50;;;21.30;52.20;;;;;;2337174;53;20964;-71
2022/09/09 04:13:37;;;;;;;1.42;0.40;;;21.30;52.20;;;;;;2343680;54;20931;-71
2022/09/09 04:16:03;;;;;;;4.57;0.30;;;21.30;52.30;;;;;;2392039;52;20951;-71
2022/09/09 04:18:34;;;;;;;1.98;0.50;;;21.20;52.30;;;;;;2342914;54;20935;-72
2022/09/09 04:21:01;;;;;;;2.12;0.77;;;21.20;52.40;;;;;;2342832;54;21531;-70
2022/09/09 04:23:29;;;;;;;1.50;0.35;;;21.20;52.40;;;;;;2394617;52;20914;-71
2022/09/09 04:25:58;;;;;;;0.98;0.40;;;21.20;52.40;;;;;;2583046;53;20940;-71
2022/09/09 04:28:25;;;;;;;1.65;0.43;;;21.20;52.40;;;;;;2336394;54;21384;-73
2022/09/09 04:30:52;;;;;;;1.02;0.40;;;21.20;53.10;;;;;;2335153;54;20938;-71
2022/09/09 04:33:18;;;;;;;2.87;0.50;;;21.10;52.50;;;;;;2320928;54;21010;-72
2022/09/09 04:35:47;;;;;;;0.68;0.30;;;21.10;52.60;;;;;;2575892;53;21018;-71
2022/09/09 04:38:16;;;;;;;0.93;0.30;;;21.10;52.60;;;;;;2337331;54;21945;-71
2022/09/09 04:40:43;;;;;;;1.77;0.40;;;21.10;52.60;;;;;;2465807;53;21472;-71
2022/09/09 04:43:10;;;;;;;1.08;0.30;;;21.10;52.70;;;;;;2320192;54;21018;-73
2022/09/09 04:45:40;;;;;;;3.42;0.40;;;21.10;52.70;;;;;;2338879;54;21523;-72
2022/09/09 04:48:06;;;;;;;1.12;0.37;;;21.10;52.80;;;;;;2584073;53;20931;-75
2022/09/09 04:50:33;;;;;;;0.98;0.40;;;21.10;52.80;;;;;;2339986;54;21528;-73
2022/09/09 04:53:03;;;;;;;0.95;0.30;;;21.10;52.80;;;;;;2338696;54;21025;-73
2022/09/09 04:55:33;;;;;;;0.95;0.40;;;21.00;52.80;;;;;;2584483;53;20969;-74
2022/09/09 04:58:04;;;;;;;1.90;0.50;;;21.00;52.90;;;;;;2352309;53;20907;-71
2022/09/09 05:00:30;;;;;;;1.15;0.40;;;21.00;53.00;;;;;;2338498;54;20923;-71
2022/09/09 05:02:56;;;;;;;1.75;0.50;;;21.00;53.00;;;;;;2512488;53;20947;-70
2022/09/09 05:05:25;;;;;;;1.83;0.60;;;21.00;53.10;;;;;;2338783;54;20998;-71
2022/09/09 05:07:54;;;;;;;2.60;0.88;;;21.00;53.20;;;;;;2337595;54;20931;-71
2022/09/09 05:10:20;;;;;;;3.33;1.00;;;21.00;53.30;;;;;;2471681;53;20942;-72
2022/09/09 05:12:53;;;;;;;1.92;0.90;;;20.90;53.30;;;;;;2323765;54;21050;-74
2022/09/09 05:15:21;;;;;;;2.10;0.85;;;20.90;53.90;;;;;;2338326;54;20959;-71
2022/09/09 05:17:47;;;;;;;3.45;1.05;;;20.90;53.30;;;;;;2579023;53;21263;-71
2022/09/09 05:20:13;;;;;;;1.83;0.77;;;20.90;53.30;;;;;;2337574;54;20954;-72
2022/09/09 05:22:42;;;;;;;3.17;0.70;;;20.90;53.40;;;;;;2338943;54;20995;-71
2022/09/09 05:25:08;;;;;;;2.28;0.80;;;20.90;53.50;;;;;;2319757;54;21794;-70
2022/09/09 05:27:35;;;;;;;0.90;0.43;;;20.90;53.50;;;;;;2339051;54;20926;-71
2022/09/09 05:30:01;;;;;;;2.67;0.50;;;20.90;53.50;;;;;;2551013;53;21027;-72
2022/09/09 05:32:33;;;;;;;2.30;0.52;;;20.90;53.60;;;;;;2338512;54;20935;-71
2022/09/09 05:34:59;;;;;;;1.05;0.30;;;20.90;53.80;;;;;;2584165;53;20966;-71
2022/09/09 05:37:25;;;;;;;1.35;0.37;;;20.90;53.70;;;;;;2339156;54;20963;-71
2022/09/09 05:39:53;;;;;;;2.30;0.37;;;21.00;53.90;;;;;;2584592;53;20927;-71
2022/09/09 05:42:19;;;;;;;1.55;0.65;;;21.00;53.90;;;;;;2584591;53;20926;-71
2022/09/09 05:44:45;;;;;;;1.37;0.30;;;21.00;53.90;;;;;;2338327;54;20961;-71
2022/09/09 05:47:11;;;;;;;2.10;0.52;;;21.00;54.00;;;;;;2584312;53;20998;-72
2022/09/09 05:49:39;;;;;;;1.58;0.50;;;21.00;54.00;;;;;;2339901;54;21087;-71
2022/09/09 05:52:05;;;;;;;2.33;0.40;;;21.00;54.10;;;;;;2328676;54;21846;-71
2022/09/09 05:54:32;;;;;;;2.12;0.62;;;21.10;54.10;;;;;;2573272;53;20955;-71
2022/09/09 05:56:59;;;;;;;1.58;0.55;;;21.10;54.10;;;;;;2332358;54;21001;-72
2022/09/09 05:59:25;;;;;;;1.15;0.40;;;21.10;54.20;;;;;;2369219;53;20966;-71
2022/09/09 06:01:52;;;;;;;1.65;0.50;;;21.10;54.20;;;;;;2338222;54;20967;-72
2022/09/09 06:04:20;;;;;;;2.20;0.40;;;21.10;54.30;;;;;;2339149;54;20975;-71
2022/09/09 06:06:46;;;;;;;5.20;0.68;;;21.10;54.30;;;;;;2478056;53;20927;-72
2022/09/09 06:09:13;;;;;;;1.12;0.40;;;21.20;54.30;;;;;;2577026;53;21351;-72
2022/09/09 06:11:40;;;;;;;1.50;0.47;;;21.20;54.30;;;;;;2337679;54;20931;-71
2022/09/09 06:14:06;;;;;;;1.45;0.40;;;21.20;54.30;;;;;;2340659;54;21152;-72
2022/09/09 06:16:33;;;;;;;2.08;0.47;;;21.20;54.40;;;;;;2578054;53;21002;-71
2022/09/09 06:18:59;;;;;;;3.03;0.50;;;21.30;54.50;;;;;;2338490;54;21010;-72
2022/09/09 06:21:36;;;;;;;1.48;0.37;;;21.30;54.50;;;;;;2320415;54;20991;-72
2022/09/09 06:24:03;;;;;;;1.98;0.35;;;21.30;54.60;;;;;;2339149;54;20946;-74
2022/09/09 06:26:31;;;;;;;1.33;0.50;;;21.40;54.50;;;;;;2576989;53;20931;-72
2022/09/09 06:28:57;;;;;;;2.22;0.50;;;21.40;54.50;;;;;;2338541;54;21061;-71
2022/09/09 06:31:25;;;;;;;1.30;0.40;;;21.40;54.50;;;;;;2338827;54;20926;-71
2022/09/09 06:33:55;;;;;;;2.03;0.57;;;21.50;54.70;;;;;;2339181;54;20983;-72
2022/09/09 06:36:31;;;;;;;3.42;0.60;;;21.50;54.70;;;;;;2338671;54;20962;-72
2022/09/09 06:38:58;;;;;;;1.70;0.40;;;21.50;54.60;;;;;;2342978;54;21002;-71
2022/09/09 06:41:26;;;;;;;0.93;0.30;;;21.60;54.70;;;;;;2574870;53;21388;-71
2022/09/09 06:43:52;;;;;;;1.00;0.35;;;21.60;54.70;;;;;;2322910;54;20979;-71
2022/09/09 06:46:21;;;;;;;1.92;0.80;;;21.60;54.60;;;;;;2570791;53;21025;-72
2022/09/09 06:48:47;;;;;;;1.58;0.47;;;21.70;54.80;;;;;;2561949;53;20962;-74
2022/09/09 06:51:23;;;;;;;4.28;0.60;;;21.70;54.80;;;;;;2327286;54;20939;-71
2022/09/09 06:53:55;;;;;;;0.80;0.32;;;21.70;54.80;;;;;;2329573;54;21628;-75
2022/09/09 06:56:31;;;;;;;;;;;21.70;54.80;;;;;;2347689;54;20967;-75
2022/09/09 06:58:58;;;;;;;1.42;0.40;;;21.80;54.80;;;;;;2343885;54;20118;-73
2022/09/09 07:01:28;;;;;;;1.48;0.50;;;21.80;54.50;;;;;;2343826;54;20917;-74
2022/09/09 07:03:55;;;;;;;1.27;0.50;;;21.80;54.60;;;;;;2342968;54;21519;-72
2022/09/09 07:06:26;;;;;;;2.67;0.68;;;21.90;54.70;;;;;;2344135;54;20895;-71
2022/09/09 07:08:57;;;;;;;2.65;0.85;;;21.90;54.80;;;;;;2343940;54;21082;-72
2022/09/09 07:11:26;;;;;;;2.05;0.50;;;21.90;54.90;;;;;;2343841;54;21002;-75
2022/09/09 07:13:52;;;;;;;1.90;0.50;;;21.90;54.80;;;;;;2343929;54;20988;-72
2022/09/09 07:16:20;;;;;;;3.03;0.55;;;21.90;54.80;;;;;;2590955;52;20904;-74
2022/09/09 07:18:47;;;;;;;1.58;0.45;;;22.00;55.00;;;;;;2343072;54;21000;-73
2022/09/09 07:21:14;;;;;;;1.40;0.40;;;22.00;54.90;;;;;;2344212;54;20916;-72
2022/09/09 07:23:40;;;;;;;1.83;0.50;;;22.00;54.90;;;;;;2344272;54;20935;-71
2022/09/09 07:26:18;;;;;;;3.22;0.60;;;22.00;54.90;;;;;;2590319;52;20917;-72
2022/09/09 07:28:48;;;;;;;2.10;0.50;;;22.10;55.10;;;;;;2556628;53;20941;-75
2022/09/09 07:31:21;;;;;;;2.58;0.60;;;22.10;54.90;;;;;;2339480;53;20956;-73
2022/09/09 07:33:48;;;;;;;1.45;0.40;;;22.10;54.90;;;;;;2556582;53;20955;-72
2022/09/09 07:36:17;;;;;;;2.58;0.57;;;22.10;54.90;;;;;;2339759;54;20950;-72
2022/09/09 07:38:47;;;;;;;1.02;0.43;;;22.20;55.10;;;;;;2342896;53;21672;-75
2022/09/09 07:41:23;;;;;;;1.87;0.50;;;22.20;55.10;;;;;;2338871;54;20899;-72
2022/09/09 07:43:53;;;;;;;1.15;0.35;;;22.20;55.20;;;;;;2432502;52;21694;-72
2022/09/09 07:46:25;;;;;;;1.95;0.50;;;22.30;55.30;;;;;;2591452;52;20983;-72
2022/09/09 07:48:52;;;;;;;2.65;0.50;;;22.30;55.40;;;;;;2344243;54;20980;-74
2022/09/09 07:51:22;;;;;;;2.17;0.40;;;22.30;55.30;;;;;;2344719;54;21011;-72
2022/09/09 07:53:48;;;;;;;1.12;0.40;;;22.40;55.40;;;;;;2344323;54;21639;-75
2022/09/09 07:56:18;;;;;;;1.77;0.55;;;22.40;55.40;;;;;;2344274;54;20912;-73
2022/09/09 07:58:46;;;;;;;1.40;0.32;;;22.50;55.40;;;;;;2344910;54;21022;-72
2022/09/09 08:01:16;;;;;;;2.87;0.60;;;22.50;55.40;;;;;;2344275;54;20935;-72
2022/09/09 08:03:44;;;;;;;1.87;0.50;;;22.50;55.30;;;;;;2344751;54;20927;-72
2022/09/09 08:06:11;;;;;;;2.50;0.60;;;22.60;55.30;;;;;;2585260;52;20987;-72
2022/09/09 08:08:41;;;;;;;3.25;0.50;;;22.60;55.30;;;;;;2346055;53;20971;-75
2022/09/09 08:11:14;;;;;;;1.02;0.32;;;22.60;55.20;;;;;;2344601;53;21099;-75
2022/09/09 08:13:41;;;;;;;1.65;0.50;;;22.70;55.30;;;;;;2333734;54;21027;-71
2022/09/09 08:16:12;;;;;;;1.50;0.40;;;22.70;55.30;;;;;;2588971;52;20983;-75
2022/09/09 08:18:39;;;;;;;2.08;0.50;;;22.80;55.40;;;;;;2585150;52;21005;-72
2022/09/09 08:21:17;;;;;;;1.83;0.60;;;22.80;55.30;;;;;;2453873;52;21201;-73
2022/09/09 08:23:45;;;;;;;1.33;0.40;;;22.80;55.30;;;;;;2340598;53;21381;-77
2022/09/09 08:26:22;;;;;;;2.30;0.40;;;22.90;55.40;;;;;;2345571;54;20987;-71
2022/09/09 08:28:51;;;;;;;2.72;0.55;;;23.00;55.70;;;;;;2340357;53;20957;-75
2022/09/09 08:31:28;;;;;;;1.12;0.50;;;23.00;55.60;;;;;;2348301;53;21432;-75
2022/09/09 08:33:54;;;;;;;3.90;0.75;;;23.10;55.80;;;;;;2345748;53;20961;-72
2022/09/09 08:36:25;;;;;;;1.87;0.62;;;23.20;55.80;;;;;;2582211;52;20908;-73
2022/09/09 08:38:55;;;;;;;1.20;0.35;;;23.30;56.00;;;;;;2349133;53;21015;-72
2022/09/09 08:42:55;;;;;;;1.55;0.45;;;23.40;56.00;;;;;;2345278;53;20981;-74
2022/09/09 08:45:43;;;;;;;1.73;0.45;;;23.50;55.80;;;;;;2346347;54;20965;-72
2022/09/09 08:49:02;;;;;;;1.58;0.40;;;23.60;55.60;;;;;;2346436;53;21021;-72
2022/09/09 08:51:29;;;;;;;1.50;0.47;;;23.70;55.50;;;;;;2347258;53;21074;-75
2022/09/09 08:53:56;;;;;;;1.60;0.40;;;23.80;55.30;;;;;;2357705;53;21008;-75
2022/09/09 08:56:25;;;;;;;1.15;0.30;;;23.80;55.00;;;;;;2350133;53;21798;-73
2022/09/09 08:58:53;;;;;;;1.62;0.40;;;23.90;55.00;;;;;;2343516;53;20986;-74
2022/09/09 09:01:39;;;;;;;2.03;0.40;;;23.90;54.80;;;;;;2346682;53;21013;-73
2022/09/09 09:05:14;;;;;;;3.87;0.50;;;24.00;54.40;;;;;;2350770;53;20938;-71
2022/09/09 09:07:55;;;;;;;2.35;0.50;;;24.10;54.20;;;;;;2342283;53;21007;-71
2022/09/09 09:11:07;;;;;;;2.47;0.60;;;24.10;54.10;;;;;;2344189;53;20933;-73
2022/09/09 09:13:50;;;;;;;1.23;0.30;;;24.20;53.80;;;;;;2347177;53;21121;-73
2022/09/09 09:16:38;;;;;;;3.05;0.70;;;24.20;53.40;;;;;;2344004;53;20988;-74
2022/09/09 09:19:05;;;;;;;3.20;0.50;;;24.20;53.30;;;;;;2342174;54;20902;-73
2022/09/09 09:21:41;;;;;;;1.73;0.60;;;24.20;53.40;;;;;;2343440;54;20932;-72
2022/09/09 09:24:20;;;;;;;3.25;0.60;;;24.20;53.30;;;;;;2344272;54;20888;-76
2022/09/09 09:26:47;;;;;;;3.42;0.55;;;24.20;53.30;;;;;;2347193;54;20976;-74
2022/09/09 09:29:16;;;;;;;2.12;0.70;;;24.10;53.10;;;;;;2342720;54;20987;-75
2022/09/09 09:31:47;;;;;;;1.85;0.37;;;24.10;52.80;;;;;;2341515;54;20964;-76
2022/09/09 09:34:13;;;;;;;1.55;0.40;;;23.90;52.60;;;;;;2339220;54;21904;-75
2022/09/09 09:36:44;;;;;;;2.42;0.45;;;23.90;52.60;;;;;;2339184;54;21370;-79
2022/09/09 09:39:10;;;;;;;0.47;0.20;;;23.70;52.50;;;;;;2339297;54;20944;-76
2022/09/09 09:42:15;;;;;;;0.90;0.20;;;23.60;52.50;;;;;;2327075;54;21836;-76
2022/09/09 09:44:42;;;;;;;0.60;0.20;;;23.40;53.00;;;;;;2362671;53;20919;-76
2022/09/09 09:47:16;;;;;;;1.48;0.60;;;23.20;53.30;;;;;;2339321;54;21893;-76
2022/09/09 09:49:59;;;;;;;0.88;0.20;;;23.00;54.00;;;;;;2338104;54;20991;-75
2022/09/09 09:52:29;;;;;;;;;;;22.90;54.50;;;;;;2405803;53;20944;-75
2022/09/09 09:54:56;;;;;;;0.77;0.30;;;22.70;55.00;;;;;;2339191;54;20103;-74
2022/09/09 09:57:40;;;;;;;0.82;0.20;;;22.60;55.30;;;;;;2584428;53;21535;-76
2022/09/09 10:00:17;;;;;;;1.27;0.30;;;22.50;56.00;;;;;;2339323;54;20924;-76
2022/09/09 10:02:44;;;;;;;1.02;0.20;;;22.40;56.60;;;;;;2338999;54;20936;-75
2022/09/09 10:05:19;;;;;;;2.85;0.65;;;22.30;56.90;;;;;;2339103;54;20955;-75
2022/09/09 10:08:05;;;;;;;2.17;0.45;;;22.20;57.50;;;;;;2339370;53;20925;-76
2022/09/09 10:12:44;;;;;;;2.15;0.32;;;22.10;57.90;;;;;;2339638;53;20920;-75
2022/09/09 10:15:45;;;;;;;0.60;0.25;;;22.00;57.80;;;;;;2338910;53;20936;-78
2022/09/09 10:18:22;;;;;;;2.08;0.40;;;22.00;58.60;;;;;;2582615;53;21418;-76
2022/09/09 10:21:06;;;;;;;1.05;0.30;;;21.90;58.90;;;;;;2339207;53;21047;-76
2022/09/09 10:26:10;;;;;;;1.37;0.25;;;22.00;59.30;;;;;;2493062;53;21027;-75
2022/09/09 10:31:19;;;;;;;0.68;0.30;;;21.80;59.20;;;;;;2484718;53;20945;-76
2022/09/09 10:34:22;;;;;;;1.10;0.30;;;21.90;59.90;;;;;;2339274;54;20980;-76
2022/09/09 10:36:49;;;;;;;1.62;0.40;;;21.90;61.00;;;;;;2339080;54;20940;-75
2022/09/09 10:39:40;;;;;;;2.42;0.57;;;21.90;61.40;;;;;;2339287;54;21449;-74
2022/09/09 10:42:13;;;;;;;2.50;0.40;;;21.90;61.70;;;;;;2339175;53;20984;-76
2022/09/09 10:44:46;;;;;;;1.73;0.40;;;21.90;61.80;;;;;;2383432;53;20929;-75
2022/09/09 10:47:25;;;;;;;3.30;0.50;;;22.00;62.30;;;;;;2325374;53;21127;-74
2022/09/09 10:50:12;;;;;;;1.48;0.43;;;22.00;62.50;;;;;;2337975;55;20929;-76
2022/09/09 10:53:09;;;;;;;1.87;0.60;;;22.00;62.30;;;;;;2318235;54;20940;-76
2022/09/09 10:55:43;;;;;;;2.25;0.70;;;22.10;62.40;;;;;;2338576;54;21417;-75
2022/09/09 10:58:22;;;;;;;1.12;0.50;;;22.10;63.30;;;;;;2341697;54;21530;-76
2022/09/09 11:00:54;;;;;;;2.92;0.70;;;22.20;62.90;;;;;;2337251;54;20937;-75
2022/09/09 11:03:26;;;;;;;;;;;22.20;63.00;;;;;;2341742;54;20921;-75
2022/09/09 11:05:57;;;;;;;1.12;0.40;;;22.30;62.40;;;;;;2584541;53;20066;-76
2022/09/09 11:08:27;;;;;;;1.50;0.60;;;22.30;63.10;;;;;;2339225;54;20968;-75
2022/09/09 11:12:22;;;;;;;2.80;0.50;;;22.40;63.30;;;;;;2339112;54;20984;-76
2022/09/09 11:14:59;;;;;;;1.48;0.40;;;22.50;63.40;;;;;;2341865;53;21356;-74
2022/09/09 11:17:40;;;;;;;1.50;0.40;;;22.50;63.10;;;;;;2339764;53;20961;-76
2022/09/09 11:20:11;;;;;;;2.97;0.50;;;22.60;63.20;;;;;;2340775;54;20947;-77
2022/09/09 11:22:48;;;;;;;2.40;0.43;;;22.70;63.30;;;;;;2328278;54;20978;-75
2022/09/09 11:25:17;;;;;;;1.83;0.50;;;22.80;63.40;;;;;;2315796;54;20938;-76
2022/09/09 11:28:12;;;;;;;2.45;0.70;;;22.90;63.40;;;;;;2338453;54;20959;-75
2022/09/09 11:33:57;;;;;;;0.80;0.30;;;22.90;62.90;;;;;;2339180;54;20938;-76
2022/09/09 11:41:58;;;;;;;1.42;0.40;;;23.10;62.30;;;;;;2340676;54;20987;-75
2022/09/09 11:44:28;;;;;;;1.30;0.40;;;23.20;62.40;;;;;;2343815;54;20989;-75
2022/09/09 11:46:54;;;;;;;0.88;0.20;;;23.30;63.70;;;;;;2345002;54;20920;-74
2022/09/09 11:49:41;;;;;;;1.60;0.35;;;23.30;63.80;;;;;;2591213;52;21492;-76
2022/09/09 11:53:29;;;;;;;1.75;0.40;;;23.40;63.20;;;;;;2344884;54;21052;-76
2022/09/09 11:56:13;;;;;;;2.10;0.50;;;23.50;63.10;;;;;;2344610;53;20943;-76
2022/09/09 11:58:41;;;;;;;2.22;0.50;;;23.50;63.70;;;;;;2418777;52;20900;-75
2022/09/09 12:01:14;;;;;;;2.58;0.52;;;23.60;63.70;;;;;;2344466;54;21042;-74
2022/09/09 12:03:46;;;;;;;1.92;0.50;;;23.60;63.10;;;;;;2344396;54;21709;-76
2022/09/09 12:06:43;;;;;;;3.00;0.55;;;23.60;63.30;;;;;;2344542;54;20979;-75
2022/09/09 12:12:59;;;;;;;3.40;0.50;;;23.70;62.10;;;;;;2343060;54;22255;-74
2022/09/09 12:15:28;;;;;;;;;;;23.70;62.00;;;;;;2349724;54;20944;-75
2022/09/09 12:17:57;;;;;;;1.05;0.30;;;23.80;61.60;;;;;;2342754;54;20121;-76
2022/09/09 12:20:35;;;;;;;1.20;0.13;;;23.80;62.40;;;;;;2342983;54;20987;-75
2022/09/09 12:29:52;;;;;;;2.28;0.50;;;23.80;61.90;;;;;;2342978;54;21007;-75
2022/09/09 12:32:24;;;;;;;0.52;0.20;;;23.80;61.30;;;;;;2345097;54;20931;-76
2022/09/09 12:35:07;;;;;;;1.83;0.30;;;23.80;61.60;;;;;;2344953;54;20956;-74
2022/09/09 12:37:46;;;;;;;2.28;0.50;;;23.80;61.50;;;;;;2344987;54;20948;-74
2022/09/09 12:40:26;;;;;;;2.08;0.45;;;23.70;60.80;;;;;;2469023;52;21025;-74
2022/09/09 12:42:52;;;;;;;1.02;0.20;;;23.70;60.40;;;;;;2341122;53;20888;-75
2022/09/09 12:45:26;;;;;;;1.60;0.30;;;23.60;61.30;;;;;;2587350;52;20997;-76
2022/09/09 12:48:03;;;;;;;1.20;0.40;;;23.70;61.50;;;;;;2341513;53;20972;-74
2022/09/09 12:50:31;;;;;;;0.68;0.20;;;23.70;61.20;;;;;;2400398;52;20971;-74
2022/09/09 12:53:03;;;;;;;0.47;0.20;;;23.70;61.80;;;;;;2344022;54;21826;-75
2022/09/09 12:55:35;;;;;;;1.40;0.37;;;23.80;61.80;;;;;;2344514;53;20952;-74
2022/09/09 12:58:04;;;;;;;1.63;0.40;;;23.80;61.20;;;;;;2344010;54;20944;-74
2022/09/09 13:00:31;;;;;;;2.17;0.47;;;23.80;61.40;;;;;;2344334;54;21259;-75
2022/09/09 13:03:01;;;;;;;2.35;0.40;;;23.90;61.50;;;;;;2344375;54;20983;-75
2022/09/09 13:05:33;;;;;;;1.50;0.30;;;23.90;61.20;;;;;;2344134;54;20991;-75
2022/09/09 13:08:02;;;;;;;0.90;0.20;;;24.00;60.90;;;;;;2344440;54;20904;-75
2022/09/09 13:10:29;;;;;;;3.33;0.52;;;24.10;60.70;;;;;;2344967;54;20979;-76
2022/09/09 13:13:02;;;;;;;2.08;0.30;;;24.10;60.60;;;;;;2590715;52;20904;-75
2022/09/09 13:15:29;;;;;;;1.55;0.30;;;24.20;60.40;;;;;;2344693;54;21635;-75
2022/09/09 13:18:00;;;;;;;0.65;0.30;;;24.30;60.10;;;;;;2345085;54;20942;-75
2022/09/09 13:20:26;;;;;;;0.93;0.25;;;24.40;59.60;;;;;;2345307;54;21051;-75
2022/09/09 13:22:53;;;;;;;2.42;0.80;;;24.40;59.80;;;;;;2344766;54;20916;-75
2022/09/09 13:25:24;;;;;;;2.15;0.40;;;24.40;59.80;;;;;;2589223;52;20978;-74
2022/09/09 13:28:13;;;;;;;1.73;0.35;;;24.50;59.80;;;;;;2344315;54;20963;-73
2022/09/09 13:30:40;;;;;;;2.53;0.32;;;24.60;59.60;;;;;;2346429;54;20987;-75
2022/09/09 13:33:28;;;;;;;2.53;0.50;;;24.60;59.70;;;;;;2560500;52;20903;-74
2022/09/09 13:35:56;;;;;;;1.52;0.40;;;24.70;58.40;;;;;;2345782;54;20916;-74
2022/09/09 13:38:22;;;;;;;3.90;0.30;;;24.70;59.60;;;;;;2421927;52;20959;-74
2022/09/09 13:41:14;;;;;;;0.77;0.20;;;24.80;59.80;;;;;;2347691;54;20994;-74
2022/09/09 13:43:47;;;;;;;1.20;0.30;;;24.80;59.70;;;;;;2342717;54;20995;-74
2022/09/09 13:49:46;;;;;;;1.02;0.35;;;24.90;59.30;;;;;;2345306;54;20995;-74
2022/09/09 13:52:14;;;;;;;1.80;0.32;;;25.00;58.20;;;;;;2345858;54;20904;-76
2022/09/09 13:54:40;;;;;;;1.52;0.30;;;25.00;59.20;;;;;;2345179;54;20978;-74
2022/09/09 13:57:17;;;;;;;1.62;0.40;;;25.00;59.10;;;;;;2346426;54;21041;-74
2022/09/09 13:59:45;;;;;;;2.33;0.55;;;25.10;57.90;;;;;;2344804;54;20939;-75
2022/09/09 14:02:27;;;;;;;2.42;0.45;;;25.00;58.40;;;;;;2344976;54;20924;-74
2022/09/09 14:04:55;;;;;;;1.42;0.40;;;25.10;58.40;;;;;;2344050;54;20979;-76
2022/09/09 14:07:21;;;;;;;2.65;0.70;;;25.00;58.20;;;;;;2343256;54;21828;-74
2022/09/09 14:09:49;;;;;;;3.45;0.60;;;25.00;58.30;;;;;;2431292;52;22073;-76
2022/09/09 14:12:16;;;;;;;2.90;0.37;;;25.00;58.60;;;;;;2347674;53;20981;-75
2022/09/09 14:14:42;;;;;;;0.73;0.30;;;25.00;58.70;;;;;;2342978;53;20963;-74
2022/09/09 14:17:08;;;;;;;3.12;0.62;;;25.10;58.70;;;;;;2343943;54;20932;-73
2022/09/09 14:19:35;;;;;;;2.35;0.50;;;25.10;58.50;;;;;;2344255;54;21906;-76